This is the latest recevied weather packets stored in our database for station/object IZ3TCG-13. If no packets are shown the sender has not sent any weather packets the latest 10 day(s).
| Time | Temp. | Humidity | Pressure | Rain* | Wind** | Luminosity | Snow |
|---|---|---|---|---|---|---|---|
| 1777765683 | 11.67° C | 75% | 1008.4 hPa | 0 mm | - | - | - |
| 1777763764 | 12.22° C | 74% | 1008.3 hPa | 0 mm | - | - | - |
| 1777762084 | 12.78° C | 71% | 1008.6 hPa | 0 mm | - | - | - |
| 1777761843 | 12.78° C | 71% | 1008.8 hPa | 0 mm | - | - | - |
| 1777760644 | 12.78° C | 71% | 1008.7 hPa | 0 mm | - | - | - |
| 1777760404 | 13.33° C | 70% | 1009.1 hPa | 0 mm | - | - | - |
| 1777757283 | 15° C | 64% | 1008.9 hPa | 0 mm | - | - | - |
| 1777756324 | 15° C | 63% | 1008.8 hPa | 0 mm | - | - | - |
| 1777755604 | 15.56° C | 62% | 1009 hPa | 0 mm | - | - | - |
| 1777755256 | 15° C | 62% | 1008.9 hPa | 0 mm | - | - | - |
| 1777748164 | 18.33° C | 53% | 1008.9 hPa | 0 mm | - | - | - |
| 1777747444 | 18.89° C | 51% | 1008.9 hPa | 0 mm | - | - | - |
| 1777747203 | 18.89° C | 50% | 1008.8 hPa | 0 mm | - | - | - |
| 1777746003 | 20.56° C | 45% | 1008.7 hPa | 0 mm | - | - | - |
| 1777743844 | 22.22° C | 41% | 1008.3 hPa | 0 mm | - | - | - |
| 1777742774 | 22.78° C | 40% | 1008.5 hPa | 0 mm | - | - | - |
| 1777740963 | 23.89° C | 38% | 1008.5 hPa | 0 mm | - | - | - |
| 1777740004 | 24.44° C | 37% | 1008.7 hPa | 0 mm | - | - | - |
| 1777738804 | 24.44° C | 36% | 1008.9 hPa | 0 mm | - | - | - |
| 1777736883 | 25° C | 35% | 1009.3 hPa | 0 mm | - | - | - |
| 1777735684 | 25.56° C | 38% | 1009.3 hPa | 0 mm | - | - | - |
| 1777735204 | 25.56° C | 35% | 1009.4 hPa | 0 mm | - | - | - |
| 1777734964 | 25° C | 36% | 1009.5 hPa | 0 mm | - | - | - |
| 1777733523 | 25.56° C | 38% | 1009.3 hPa | 0 mm | - | - | - |
| 1777732933 | 25.56° C | 35% | 1009.6 hPa | 0 mm | - | - | - |
* Rain latest hour (hover to see other rain measurements)
** Current wind speed in m/s (hover to see current wind gust speed)